sensor_id;sensor_type;location;lat;lon;timestamp;temperature;humidity
29501;DHT22;16450;50.288;10.966;2023-02-28T00:02:57;-2.60;95.50
29501;DHT22;16450;50.288;10.966;2023-02-28T00:05:59;-2.70;95.70
29501;DHT22;16450;50.288;10.966;2023-02-28T00:09:01;-2.60;96.00
29501;DHT22;16450;50.288;10.966;2023-02-28T00:12:04;-2.60;96.10
29501;DHT22;16450;50.288;10.966;2023-02-28T00:15:11;-2.60;96.30
29501;DHT22;16450;50.288;10.966;2023-02-28T00:18:13;-2.50;96.60
29501;DHT22;16450;50.288;10.966;2023-02-28T00:21:16;-2.50;96.60
29501;DHT22;16450;50.288;10.966;2023-02-28T00:24:18;-2.50;96.60
29501;DHT22;16450;50.288;10.966;2023-02-28T00:27:20;-2.40;96.70
29501;DHT22;16450;50.288;10.966;2023-02-28T00:30:23;-2.40;96.70
29501;DHT22;16450;50.288;10.966;2023-02-28T00:33:26;-2.30;96.60
29501;DHT22;16450;50.288;10.966;2023-02-28T00:36:28;-2.30;96.70
29501;DHT22;16450;50.288;10.966;2023-02-28T00:39:30;-2.30;96.70
29501;DHT22;16450;50.288;10.966;2023-02-28T00:42:33;-2.30;96.70
29501;DHT22;16450;50.288;10.966;2023-02-28T00:45:36;-2.30;96.70
29501;DHT22;16450;50.288;10.966;2023-02-28T00:48:37;-2.20;96.80
29501;DHT22;16450;50.288;10.966;2023-02-28T00:51:39;-2.20;97.00
29501;DHT22;16450;50.288;10.966;2023-02-28T00:54:41;-2.20;97.00
29501;DHT22;16450;50.288;10.966;2023-02-28T00:57:43;-2.10;97.10
29501;DHT22;16450;50.288;10.966;2023-02-28T01:00:45;-2.10;97.20
29501;DHT22;16450;50.288;10.966;2023-02-28T01:03:50;-2.00;97.30
29501;DHT22;16450;50.288;10.966;2023-02-28T01:06:52;-2.00;97.40
29501;DHT22;16450;50.288;10.966;2023-02-28T01:09:54;-1.90;97.50
29501;DHT22;16450;50.288;10.966;2023-02-28T01:12:56;-1.90;97.50
29501;DHT22;16450;50.288;10.966;2023-02-28T01:15:58;-1.90;97.50
29501;DHT22;16450;50.288;10.966;2023-02-28T01:19:00;-1.90;97.50
29501;DHT22;16450;50.288;10.966;2023-02-28T01:22:04;-1.80;97.60
29501;DHT22;16450;50.288;10.966;2023-02-28T01:25:06;-1.80;97.50
29501;DHT22;16450;50.288;10.966;2023-02-28T01:28:09;-1.80;97.70
29501;DHT22;16450;50.288;10.966;2023-02-28T01:31:11;-1.70;97.70
29501;DHT22;16450;50.288;10.966;2023-02-28T01:34:13;-1.70;97.70
29501;DHT22;16450;50.288;10.966;2023-02-28T01:37:15;-1.70;97.70
29501;DHT22;16450;50.288;10.966;2023-02-28T01:40:17;-1.60;97.80
29501;DHT22;16450;50.288;10.966;2023-02-28T01:46:26;-1.60;97.30
29501;DHT22;16450;50.288;10.966;2023-02-28T01:49:28;-1.60;97.60
29501;DHT22;16450;50.288;10.966;2023-02-28T01:52:30;-1.60;97.50
29501;DHT22;16450;50.288;10.966;2023-02-28T01:55:33;-1.60;97.50
29501;DHT22;16450;50.288;10.966;2023-02-28T01:58:36;-1.60;97.40
29501;DHT22;16450;50.288;10.966;2023-02-28T02:01:38;-1.60;97.40
29501;DHT22;16450;50.288;10.966;2023-02-28T02:05:03;-1.60;97.40
29501;DHT22;16450;50.288;10.966;2023-02-28T02:08:08;-1.60;96.90
29501;DHT22;16450;50.288;10.966;2023-02-28T02:11:18;-1.70;96.80
29501;DHT22;16450;50.288;10.966;2023-02-28T02:17:52;-1.80;95.70
29501;DHT22;16450;50.288;10.966;2023-02-28T02:24:25;-1.90;96.00
29501;DHT22;16450;50.288;10.966;2023-02-28T02:38:19;-2.30;95.30
29501;DHT22;16450;50.288;10.966;2023-02-28T02:41:39;-2.40;94.90
29501;DHT22;16450;50.288;10.966;2023-02-28T02:45:27;-2.50;94.70
29501;DHT22;16450;50.288;10.966;2023-02-28T02:48:31;-2.60;94.50
29501;DHT22;16450;50.288;10.966;2023-02-28T02:51:36;-2.70;94.60
29501;DHT22;16450;50.288;10.966;2023-02-28T02:54:45;-2.80;94.60
29501;DHT22;16450;50.288;10.966;2023-02-28T02:57:54;-2.90;94.40
29501;DHT22;16450;50.288;10.966;2023-02-28T03:01:00;-3.00;94.60
29501;DHT22;16450;50.288;10.966;2023-02-28T03:04:16;-3.00;94.40
29501;DHT22;16450;50.288;10.966;2023-02-28T03:07:18;-3.20;94.20
29501;DHT22;16450;50.288;10.966;2023-02-28T03:20:04;-3.50;94.00
29501;DHT22;16450;50.288;10.966;2023-02-28T03:26:23;-3.50;94.30
29501;DHT22;16450;50.288;10.966;2023-02-28T03:29:43;-3.60;94.20
29501;DHT22;16450;50.288;10.966;2023-02-28T03:36:14;-3.70;94.10
29501;DHT22;16450;50.288;10.966;2023-02-28T03:39:24;-3.70;94.20
29501;DHT22;16450;50.288;10.966;2023-02-28T03:42:31;-3.80;94.10
29501;DHT22;16450;50.288;10.966;2023-02-28T03:45:36;-3.80;94.10
29501;DHT22;16450;50.288;10.966;2023-02-28T03:48:48;-3.80;94.10
29501;DHT22;16450;50.288;10.966;2023-02-28T03:51:51;-3.90;94.10
29501;DHT22;16450;50.288;10.966;2023-02-28T03:55:00;-3.90;94.20
29501;DHT22;16450;50.288;10.966;2023-02-28T03:58:21;-4.00;94.10
29501;DHT22;16450;50.288;10.966;2023-02-28T04:01:32;-4.00;93.90
29501;DHT22;16450;50.288;10.966;2023-02-28T04:04:35;-4.10;94.00
29501;DHT22;16450;50.288;10.966;2023-02-28T04:07:37;-4.10;94.10
29501;DHT22;16450;50.288;10.966;2023-02-28T04:10:39;-4.10;94.00
29501;DHT22;16450;50.288;10.966;2023-02-28T04:13:41;-4.20;94.00
29501;DHT22;16450;50.288;10.966;2023-02-28T04:16:44;-4.20;94.00
29501;DHT22;16450;50.288;10.966;2023-02-28T04:19:46;-4.20;93.90
29501;DHT22;16450;50.288;10.966;2023-02-28T04:22:48;-4.30;93.90
29501;DHT22;16450;50.288;10.966;2023-02-28T04:25:50;-4.30;93.90
29501;DHT22;16450;50.288;10.966;2023-02-28T04:28:53;-4.40;93.90
29501;DHT22;16450;50.288;10.966;2023-02-28T04:31:57;-4.40;93.90
29501;DHT22;16450;50.288;10.966;2023-02-28T04:35:00;-4.40;93.90
29501;DHT22;16450;50.288;10.966;2023-02-28T04:38:02;-4.50;93.90
29501;DHT22;16450;50.288;10.966;2023-02-28T04:41:04;-4.50;94.00
29501;DHT22;16450;50.288;10.966;2023-02-28T04:44:06;-4.50;94.10
29501;DHT22;16450;50.288;10.966;2023-02-28T04:47:08;-4.50;94.10
29501;DHT22;16450;50.288;10.966;2023-02-28T04:50:10;-4.50;94.30
29501;DHT22;16450;50.288;10.966;2023-02-28T04:53:12;-4.60;94.30
29501;DHT22;16450;50.288;10.966;2023-02-28T04:56:16;-4.60;94.30
29501;DHT22;16450;50.288;10.966;2023-02-28T04:59:18;-4.60;94.30
29501;DHT22;16450;50.288;10.966;2023-02-28T05:02:20;-4.60;94.40
29501;DHT22;16450;50.288;10.966;2023-02-28T05:05:22;-4.70;94.30
29501;DHT22;16450;50.288;10.966;2023-02-28T05:08:24;-4.70;94.40
29501;DHT22;16450;50.288;10.966;2023-02-28T05:11:29;-4.70;94.40
29501;DHT22;16450;50.288;10.966;2023-02-28T05:14:35;-4.70;94.50
29501;DHT22;16450;50.288;10.966;2023-02-28T05:17:38;-4.70;94.60
29501;DHT22;16450;50.288;10.966;2023-02-28T05:20:40;-4.70;94.80
29501;DHT22;16450;50.288;10.966;2023-02-28T05:23:42;-4.70;94.90
29501;DHT22;16450;50.288;10.966;2023-02-28T05:26:44;-4.70;95.00
29501;DHT22;16450;50.288;10.966;2023-02-28T05:29:46;-4.70;95.20
29501;DHT22;16450;50.288;10.966;2023-02-28T05:32:51;-4.70;95.30
29501;DHT22;16450;50.288;10.966;2023-02-28T05:35:52;-4.60;95.40
29501;DHT22;16450;50.288;10.966;2023-02-28T05:38:54;-4.60;95.50
29501;DHT22;16450;50.288;10.966;2023-02-28T05:41:56;-4.60;95.70
29501;DHT22;16450;50.288;10.966;2023-02-28T05:44:58;-4.50;95.90
29501;DHT22;16450;50.288;10.966;2023-02-28T05:48:00;-4.40;96.10
29501;DHT22;16450;50.288;10.966;2023-02-28T05:51:03;-4.40;96.30
29501;DHT22;16450;50.288;10.966;2023-02-28T05:54:05;-4.30;96.40
29501;DHT22;16450;50.288;10.966;2023-02-28T05:57:07;-4.30;96.60
29501;DHT22;16450;50.288;10.966;2023-02-28T06:00:24;-4.20;96.60
29501;DHT22;16450;50.288;10.966;2023-02-28T06:03:27;-4.10;96.70
29501;DHT22;16450;50.288;10.966;2023-02-28T06:06:29;-4.10;96.60
29501;DHT22;16450;50.288;10.966;2023-02-28T06:09:31;-4.00;96.60
29501;DHT22;16450;50.288;10.966;2023-02-28T06:12:33;-4.00;96.70
29501;DHT22;16450;50.288;10.966;2023-02-28T06:15:35;-4.00;96.70
29501;DHT22;16450;50.288;10.966;2023-02-28T06:18:37;-3.90;96.70
29501;DHT22;16450;50.288;10.966;2023-02-28T06:21:39;-3.90;96.80
29501;DHT22;16450;50.288;10.966;2023-02-28T06:24:40;-3.80;96.90
29501;DHT22;16450;50.288;10.966;2023-02-28T06:27:42;-3.80;97.00
29501;DHT22;16450;50.288;10.966;2023-02-28T06:30:45;-3.80;97.00
29501;DHT22;16450;50.288;10.966;2023-02-28T06:33:47;-3.80;97.10
29501;DHT22;16450;50.288;10.966;2023-02-28T06:36:51;-3.70;97.20
29501;DHT22;16450;50.288;10.966;2023-02-28T06:39:54;-3.70;97.20
29501;DHT22;16450;50.288;10.966;2023-02-28T06:42:57;-3.60;97.30
29501;DHT22;16450;50.288;10.966;2023-02-28T06:46:00;-3.60;97.50
29501;DHT22;16450;50.288;10.966;2023-02-28T06:49:02;-3.60;97.50
29501;DHT22;16450;50.288;10.966;2023-02-28T06:52:04;-3.50;97.70
29501;DHT22;16450;50.288;10.966;2023-02-28T06:55:07;-3.40;97.80
29501;DHT22;16450;50.288;10.966;2023-02-28T06:58:09;-3.40;97.90
29501;DHT22;16450;50.288;10.966;2023-02-28T07:01:17;-3.30;98.00
29501;DHT22;16450;50.288;10.966;2023-02-28T07:04:21;-3.20;98.10
29501;DHT22;16450;50.288;10.966;2023-02-28T07:07:23;-3.20;98.20
29501;DHT22;16450;50.288;10.966;2023-02-28T07:10:25;-3.10;98.30
29501;DHT22;16450;50.288;10.966;2023-02-28T07:13:27;-3.00;98.40
29501;DHT22;16450;50.288;10.966;2023-02-28T07:16:29;-2.90;98.50
29501;DHT22;16450;50.288;10.966;2023-02-28T07:19:31;-2.90;98.50
29501;DHT22;16450;50.288;10.966;2023-02-28T07:22:33;-2.80;98.50
29501;DHT22;16450;50.288;10.966;2023-02-28T07:25:35;-2.70;98.60
29501;DHT22;16450;50.288;10.966;2023-02-28T07:28:37;-2.60;98.60
29501;DHT22;16450;50.288;10.966;2023-02-28T07:31:39;-2.50;98.60
29501;DHT22;16450;50.288;10.966;2023-02-28T07:34:41;-2.50;98.70
29501;DHT22;16450;50.288;10.966;2023-02-28T07:37:43;-2.40;98.70
29501;DHT22;16450;50.288;10.966;2023-02-28T07:40:45;-2.30;99.10
29501;DHT22;16450;50.288;10.966;2023-02-28T07:43:47;-2.20;99.00
29501;DHT22;16450;50.288;10.966;2023-02-28T07:46:49;-2.10;99.00
29501;DHT22;16450;50.288;10.966;2023-02-28T07:49:51;-2.00;99.00
29501;DHT22;16450;50.288;10.966;2023-02-28T07:52:53;-1.90;99.10
29501;DHT22;16450;50.288;10.966;2023-02-28T07:55:56;-1.80;99.20
29501;DHT22;16450;50.288;10.966;2023-02-28T07:58:58;-1.70;99.10
29501;DHT22;16450;50.288;10.966;2023-02-28T08:02:00;-1.70;99.20
29501;DHT22;16450;50.288;10.966;2023-02-28T08:05:03;-1.60;99.30
29501;DHT22;16450;50.288;10.966;2023-02-28T08:08:05;-1.50;99.30
29501;DHT22;16450;50.288;10.966;2023-02-28T08:11:07;-1.40;99.20
29501;DHT22;16450;50.288;10.966;2023-02-28T08:14:08;-1.40;99.10
29501;DHT22;16450;50.288;10.966;2023-02-28T08:17:11;-1.40;98.80
29501;DHT22;16450;50.288;10.966;2023-02-28T08:20:13;-1.40;98.60
29501;DHT22;16450;50.288;10.966;2023-02-28T08:23:15;-1.40;98.80
29501;DHT22;16450;50.288;10.966;2023-02-28T08:26:17;-1.30;98.80
29501;DHT22;16450;50.288;10.966;2023-02-28T08:29:19;-1.30;98.60
29501;DHT22;16450;50.288;10.966;2023-02-28T08:32:21;-1.30;98.70
29501;DHT22;16450;50.288;10.966;2023-02-28T08:35:30;-1.30;98.70
29501;DHT22;16450;50.288;10.966;2023-02-28T08:38:32;-1.20;98.90
29501;DHT22;16450;50.288;10.966;2023-02-28T08:41:34;-1.10;98.80
29501;DHT22;16450;50.288;10.966;2023-02-28T08:44:36;-1.10;98.90
29501;DHT22;16450;50.288;10.966;2023-02-28T08:47:38;-1.00;98.80
29501;DHT22;16450;50.288;10.966;2023-02-28T08:50:40;-0.90;98.70
29501;DHT22;16450;50.288;10.966;2023-02-28T08:53:42;-0.90;98.80
29501;DHT22;16450;50.288;10.966;2023-02-28T08:56:44;-0.80;98.60
29501;DHT22;16450;50.288;10.966;2023-02-28T08:59:47;-0.70;98.60
29501;DHT22;16450;50.288;10.966;2023-02-28T09:02:48;-0.60;98.70
29501;DHT22;16450;50.288;10.966;2023-02-28T09:05:59;-0.50;98.80
29501;DHT22;16450;50.288;10.966;2023-02-28T09:09:01;-0.40;98.30
29501;DHT22;16450;50.288;10.966;2023-02-28T09:12:03;-0.20;99.10
29501;DHT22;16450;50.288;10.966;2023-02-28T09:15:05;-0.10;99.10
29501;DHT22;16450;50.288;10.966;2023-02-28T09:18:07;0.20;99.20
29501;DHT22;16450;50.288;10.966;2023-02-28T09:21:12;0.40;99.50
29501;DHT22;16450;50.288;10.966;2023-02-28T09:24:15;0.70;99.50
29501;DHT22;16450;50.288;10.966;2023-02-28T09:27:17;1.00;99.90
29501;DHT22;16450;50.288;10.966;2023-02-28T09:30:19;1.40;99.90
29501;DHT22;16450;50.288;10.966;2023-02-28T09:33:21;1.70;99.90
29501;DHT22;16450;50.288;10.966;2023-02-28T09:36:25;2.00;99.90
29501;DHT22;16450;50.288;10.966;2023-02-28T09:39:44;2.20;99.70
29501;DHT22;16450;50.288;10.966;2023-02-28T09:42:47;2.50;99.90
29501;DHT22;16450;50.288;10.966;2023-02-28T09:45:56;2.70;99.40
29501;DHT22;16450;50.288;10.966;2023-02-28T09:49:07;3.00;98.30
29501;DHT22;16450;50.288;10.966;2023-02-28T09:52:22;3.10;97.80
29501;DHT22;16450;50.288;10.966;2023-02-28T09:55:33;3.30;97.00
29501;DHT22;16450;50.288;10.966;2023-02-28T09:59:01;3.40;98.70
29501;DHT22;16450;50.288;10.966;2023-02-28T10:05:22;3.60;98.40
29501;DHT22;16450;50.288;10.966;2023-02-28T10:08:31;3.70;97.30
29501;DHT22;16450;50.288;10.966;2023-02-28T10:11:36;3.80;96.80
29501;DHT22;16450;50.288;10.966;2023-02-28T10:14:40;3.80;97.30
29501;DHT22;16450;50.288;10.966;2023-02-28T10:17:48;3.90;97.00
29501;DHT22;16450;50.288;10.966;2023-02-28T10:21:24;4.00;96.50
29501;DHT22;16450;50.288;10.966;2023-02-28T10:24:44;4.00;95.50
29501;DHT22;16450;50.288;10.966;2023-02-28T10:27:46;4.10;95.80
29501;DHT22;16450;50.288;10.966;2023-02-28T10:30:50;4.10;97.30
29501;DHT22;16450;50.288;10.966;2023-02-28T10:33:52;4.10;96.10
29501;DHT22;16450;50.288;10.966;2023-02-28T10:36:54;4.20;97.10
29501;DHT22;16450;50.288;10.966;2023-02-28T10:39:57;4.10;96.60
29501;DHT22;16450;50.288;10.966;2023-02-28T10:43:18;4.10;96.60
29501;DHT22;16450;50.288;10.966;2023-02-28T10:46:20;4.10;96.30
29501;DHT22;16450;50.288;10.966;2023-02-28T10:49:30;4.00;96.10
29501;DHT22;16450;50.288;10.966;2023-02-28T10:52:37;4.00;96.50
29501;DHT22;16450;50.288;10.966;2023-02-28T10:55:40;4.00;95.80
29501;DHT22;16450;50.288;10.966;2023-02-28T11:02:07;3.90;94.70
29501;DHT22;16450;50.288;10.966;2023-02-28T11:08:25;3.80;96.30
29501;DHT22;16450;50.288;10.966;2023-02-28T11:11:29;3.80;96.40
29501;DHT22;16450;50.288;10.966;2023-02-28T11:14:46;3.80;96.20
29501;DHT22;16450;50.288;10.966;2023-02-28T11:21:15;3.80;94.20
29501;DHT22;16450;50.288;10.966;2023-02-28T11:24:28;3.80;96.30
29501;DHT22;16450;50.288;10.966;2023-02-28T11:30:41;3.80;97.00
29501;DHT22;16450;50.288;10.966;2023-02-28T11:33:48;3.80;96.30
29501;DHT22;16450;50.288;10.966;2023-02-28T11:36:54;3.80;96.50
29501;DHT22;16450;50.288;10.966;2023-02-28T11:39:57;3.80;96.70
29501;DHT22;16450;50.288;10.966;2023-02-28T11:43:13;3.80;97.00
29501;DHT22;16450;50.288;10.966;2023-02-28T11:46:29;3.90;95.60
29501;DHT22;16450;50.288;10.966;2023-02-28T11:50:03;3.90;96.40
29501;DHT22;16450;50.288;10.966;2023-02-28T11:56:47;3.90;95.60
29501;DHT22;16450;50.288;10.966;2023-02-28T12:00:28;3.90;95.40
29501;DHT22;16450;50.288;10.966;2023-02-28T12:03:57;4.00;94.40
29501;DHT22;16450;50.288;10.966;2023-02-28T12:07:16;4.00;95.30
29501;DHT22;16450;50.288;10.966;2023-02-28T12:10:25;4.00;96.10
29501;DHT22;16450;50.288;10.966;2023-02-28T12:13:45;4.10;96.80
29501;DHT22;16450;50.288;10.966;2023-02-28T12:16:58;4.10;95.60
29501;DHT22;16450;50.288;10.966;2023-02-28T12:26:55;4.10;95.30
29501;DHT22;16450;50.288;10.966;2023-02-28T12:30:06;4.10;97.20
29501;DHT22;16450;50.288;10.966;2023-02-28T12:33:17;4.20;97.20
29501;DHT22;16450;50.288;10.966;2023-02-28T12:36:22;4.20;97.20
29501;DHT22;16450;50.288;10.966;2023-02-28T12:39:32;4.30;97.60
29501;DHT22;16450;50.288;10.966;2023-02-28T12:43:00;4.30;96.40
29501;DHT22;16450;50.288;10.966;2023-02-28T12:46:22;4.30;96.40
29501;DHT22;16450;50.288;10.966;2023-02-28T12:49:39;4.20;95.30
29501;DHT22;16450;50.288;10.966;2023-02-28T12:53:02;4.30;96.60
29501;DHT22;16450;50.288;10.966;2023-02-28T12:56:31;4.30;96.00
29501;DHT22;16450;50.288;10.966;2023-02-28T12:59:49;4.30;95.30
29501;DHT22;16450;50.288;10.966;2023-02-28T13:09:30;4.50;95.50
29501;DHT22;16450;50.288;10.966;2023-02-28T13:12:32;4.50;97.90
29501;DHT22;16450;50.288;10.966;2023-02-28T13:15:34;4.60;97.90
29501;DHT22;16450;50.288;10.966;2023-02-28T13:18:46;4.70;97.80
29501;DHT22;16450;50.288;10.966;2023-02-28T13:21:49;4.70;96.10
29501;DHT22;16450;50.288;10.966;2023-02-28T13:24:56;4.70;97.60
29501;DHT22;16450;50.288;10.966;2023-02-28T13:27:58;4.80;96.30
29501;DHT22;16450;50.288;10.966;2023-02-28T13:31:06;4.80;97.30
29501;DHT22;16450;50.288;10.966;2023-02-28T13:34:14;4.70;97.20
29501;DHT22;16450;50.288;10.966;2023-02-28T13:40:31;4.80;95.80
29501;DHT22;16450;50.288;10.966;2023-02-28T13:54:01;5.00;93.50
29501;DHT22;16450;50.288;10.966;2023-02-28T14:00:57;5.00;95.20
29501;DHT22;16450;50.288;10.966;2023-02-28T14:07:52;5.00;94.40
29501;DHT22;16450;50.288;10.966;2023-02-28T14:11:05;4.90;95.00
29501;DHT22;16450;50.288;10.966;2023-02-28T14:14:09;5.00;95.00
29501;DHT22;16450;50.288;10.966;2023-02-28T14:17:15;4.90;96.30
29501;DHT22;16450;50.288;10.966;2023-02-28T14:20:20;4.90;95.50
29501;DHT22;16450;50.288;10.966;2023-02-28T14:26:48;4.80;94.70
29501;DHT22;16450;50.288;10.966;2023-02-28T14:36:31;4.70;96.30
29501;DHT22;16450;50.288;10.966;2023-02-28T14:39:34;4.70;94.10
29501;DHT22;16450;50.288;10.966;2023-02-28T14:42:37;4.60;96.00
29501;DHT22;16450;50.288;10.966;2023-02-28T14:45:39;4.60;95.80
29501;DHT22;16450;50.288;10.966;2023-02-28T14:48:45;4.50;95.70
29501;DHT22;16450;50.288;10.966;2023-02-28T14:51:49;4.50;94.60
29501;DHT22;16450;50.288;10.966;2023-02-28T14:55:15;4.40;95.20
29501;DHT22;16450;50.288;10.966;2023-02-28T14:58:25;4.40;95.50
29501;DHT22;16450;50.288;10.966;2023-02-28T15:01:27;4.40;93.80
29501;DHT22;16450;50.288;10.966;2023-02-28T15:04:29;4.40;95.80
29501;DHT22;16450;50.288;10.966;2023-02-28T15:07:34;4.40;95.60
29501;DHT22;16450;50.288;10.966;2023-02-28T15:10:37;4.30;95.80
29501;DHT22;16450;50.288;10.966;2023-02-28T15:13:46;4.30;95.50
29501;DHT22;16450;50.288;10.966;2023-02-28T15:16:56;4.30;94.30
29501;DHT22;16450;50.288;10.966;2023-02-28T15:20:00;4.30;94.20
29501;DHT22;16450;50.288;10.966;2023-02-28T15:23:02;4.20;95.50
29501;DHT22;16450;50.288;10.966;2023-02-28T15:26:04;4.20;95.30
29501;DHT22;16450;50.288;10.966;2023-02-28T15:29:11;4.20;95.50
29501;DHT22;16450;50.288;10.966;2023-02-28T15:32:37;4.10;95.00
29501;DHT22;16450;50.288;10.966;2023-02-28T15:35:41;4.00;93.20
29501;DHT22;16450;50.288;10.966;2023-02-28T15:38:43;4.00;95.20
29501;DHT22;16450;50.288;10.966;2023-02-28T15:41:45;4.00;95.50
29501;DHT22;16450;50.288;10.966;2023-02-28T15:44:48;4.00;95.60
29501;DHT22;16450;50.288;10.966;2023-02-28T15:47:50;3.90;95.40
29501;DHT22;16450;50.288;10.966;2023-02-28T15:50:56;3.80;95.00
29501;DHT22;16450;50.288;10.966;2023-02-28T15:54:05;3.70;94.80
29501;DHT22;16450;50.288;10.966;2023-02-28T15:57:10;3.60;94.10
29501;DHT22;16450;50.288;10.966;2023-02-28T16:00:20;3.60;95.00
29501;DHT22;16450;50.288;10.966;2023-02-28T16:03:27;3.50;94.20
29501;DHT22;16450;50.288;10.966;2023-02-28T16:09:43;3.40;93.80
29501;DHT22;16450;50.288;10.966;2023-02-28T16:12:45;3.30;95.20
29501;DHT22;16450;50.288;10.966;2023-02-28T16:15:47;3.30;95.60
29501;DHT22;16450;50.288;10.966;2023-02-28T16:18:51;3.40;96.60
29501;DHT22;16450;50.288;10.966;2023-02-28T16:21:53;3.40;96.20
29501;DHT22;16450;50.288;10.966;2023-02-28T16:24:55;3.50;95.90
29501;DHT22;16450;50.288;10.966;2023-02-28T16:27:57;3.40;95.60
29501;DHT22;16450;50.288;10.966;2023-02-28T16:31:03;3.40;95.20
29501;DHT22;16450;50.288;10.966;2023-02-28T16:34:05;3.30;94.40
29501;DHT22;16450;50.288;10.966;2023-02-28T16:37:12;3.20;94.50
29501;DHT22;16450;50.288;10.966;2023-02-28T16:40:17;3.20;93.30
29501;DHT22;16450;50.288;10.966;2023-02-28T16:43:23;3.00;93.60
29501;DHT22;16450;50.288;10.966;2023-02-28T16:46:34;2.90;93.20
29501;DHT22;16450;50.288;10.966;2023-02-28T16:49:37;2.80;92.70
29501;DHT22;16450;50.288;10.966;2023-02-28T16:52:39;2.70;94.00
29501;DHT22;16450;50.288;10.966;2023-02-28T16:55:41;2.60;94.30
29501;DHT22;16450;50.288;10.966;2023-02-28T16:58:43;2.60;94.00
29501;DHT22;16450;50.288;10.966;2023-02-28T17:01:45;2.20;94.10
29501;DHT22;16450;50.288;10.966;2023-02-28T17:04:47;2.30;94.20
29501;DHT22;16450;50.288;10.966;2023-02-28T17:07:49;2.30;94.30
29501;DHT22;16450;50.288;10.966;2023-02-28T17:10:51;2.20;94.20
29501;DHT22;16450;50.288;10.966;2023-02-28T17:13:53;2.10;94.30
29501;DHT22;16450;50.288;10.966;2023-02-28T17:16:55;2.00;94.20
29501;DHT22;16450;50.288;10.966;2023-02-28T17:19:57;2.00;94.30
29501;DHT22;16450;50.288;10.966;2023-02-28T17:22:59;1.90;94.40
29501;DHT22;16450;50.288;10.966;2023-02-28T17:26:02;1.80;94.40
29501;DHT22;16450;50.288;10.966;2023-02-28T17:29:15;1.80;94.10
29501;DHT22;16450;50.288;10.966;2023-02-28T17:32:17;1.70;93.10
29501;DHT22;16450;50.288;10.966;2023-02-28T17:35:19;1.60;94.10
29501;DHT22;16450;50.288;10.966;2023-02-28T17:38:21;1.60;94.10
29501;DHT22;16450;50.288;10.966;2023-02-28T17:41:25;1.50;94.10
29501;DHT22;16450;50.288;10.966;2023-02-28T17:44:28;1.50;94.20
29501;DHT22;16450;50.288;10.966;2023-02-28T17:47:30;1.40;94.30
29501;DHT22;16450;50.288;10.966;2023-02-28T17:50:32;1.40;94.30
29501;DHT22;16450;50.288;10.966;2023-02-28T17:53:34;1.30;94.20
29501;DHT22;16450;50.288;10.966;2023-02-28T17:56:36;1.30;94.70
29501;DHT22;16450;50.288;10.966;2023-02-28T17:59:38;1.20;94.40
29501;DHT22;16450;50.288;10.966;2023-02-28T18:02:40;1.20;94.70
29501;DHT22;16450;50.288;10.966;2023-02-28T18:05:42;1.10;94.60
29501;DHT22;16450;50.288;10.966;2023-02-28T18:08:44;1.00;94.50
29501;DHT22;16450;50.288;10.966;2023-02-28T18:11:45;1.00;94.40
29501;DHT22;16450;50.288;10.966;2023-02-28T18:14:49;1.00;94.40
29501;DHT22;16450;50.288;10.966;2023-02-28T18:17:51;1.00;94.30
29501;DHT22;16450;50.288;10.966;2023-02-28T18:20:53;0.90;94.20
29501;DHT22;16450;50.288;10.966;2023-02-28T18:23:56;0.90;94.10
29501;DHT22;16450;50.288;10.966;2023-02-28T18:26:58;0.90;93.80
29501;DHT22;16450;50.288;10.966;2023-02-28T18:30:00;0.80;94.20
29501;DHT22;16450;50.288;10.966;2023-02-28T18:33:03;0.80;94.20
29501;DHT22;16450;50.288;10.966;2023-02-28T18:36:06;0.80;94.10
29501;DHT22;16450;50.288;10.966;2023-02-28T18:39:08;0.70;94.20
29501;DHT22;16450;50.288;10.966;2023-02-28T18:42:12;0.70;94.10
29501;DHT22;16450;50.288;10.966;2023-02-28T18:45:14;0.70;94.30
29501;DHT22;16450;50.288;10.966;2023-02-28T18:48:16;0.70;94.20
29501;DHT22;16450;50.288;10.966;2023-02-28T18:51:22;0.60;94.20
29501;DHT22;16450;50.288;10.966;2023-02-28T18:54:24;0.60;94.00
29501;DHT22;16450;50.288;10.966;2023-02-28T18:57:27;0.60;94.20
29501;DHT22;16450;50.288;10.966;2023-02-28T19:00:30;0.50;94.00
29501;DHT22;16450;50.288;10.966;2023-02-28T19:03:34;0.50;94.20
29501;DHT22;16450;50.288;10.966;2023-02-28T19:06:36;0.40;94.20
29501;DHT22;16450;50.288;10.966;2023-02-28T19:09:39;0.40;94.30
29501;DHT22;16450;50.288;10.966;2023-02-28T19:12:42;0.40;94.30
29501;DHT22;16450;50.288;10.966;2023-02-28T19:15:44;0.40;94.20
29501;DHT22;16450;50.288;10.966;2023-02-28T19:18:46;0.40;94.30
29501;DHT22;16450;50.288;10.966;2023-02-28T19:21:48;0.30;94.30
29501;DHT22;16450;50.288;10.966;2023-02-28T19:24:51;0.30;94.40
29501;DHT22;16450;50.288;10.966;2023-02-28T19:27:54;0.30;94.30
29501;DHT22;16450;50.288;10.966;2023-02-28T19:30:57;0.30;94.30
29501;DHT22;16450;50.288;10.966;2023-02-28T19:33:59;0.30;94.50
29501;DHT22;16450;50.288;10.966;2023-02-28T19:37:01;0.20;94.40
29501;DHT22;16450;50.288;10.966;2023-02-28T19:40:03;0.20;94.50
29501;DHT22;16450;50.288;10.966;2023-02-28T19:43:06;0.20;94.50
29501;DHT22;16450;50.288;10.966;2023-02-28T19:46:09;0.10;94.50
29501;DHT22;16450;50.288;10.966;2023-02-28T19:49:12;0.10;94.40
29501;DHT22;16450;50.288;10.966;2023-02-28T19:52:14;0.00;94.60
29501;DHT22;16450;50.288;10.966;2023-02-28T19:55:16;0.00;94.60
29501;DHT22;16450;50.288;10.966;2023-02-28T19:58:19;0.00;94.60
29501;DHT22;16450;50.288;10.966;2023-02-28T20:01:24;0.00;94.70
29501;DHT22;16450;50.288;10.966;2023-02-28T20:04:26;0.00;94.80
29501;DHT22;16450;50.288;10.966;2023-02-28T20:07:30;-0.10;94.80
29501;DHT22;16450;50.288;10.966;2023-02-28T20:10:33;-0.10;95.00
29501;DHT22;16450;50.288;10.966;2023-02-28T20:13:35;-0.10;94.80
29501;DHT22;16450;50.288;10.966;2023-02-28T20:16:38;-0.20;94.90
29501;DHT22;16450;50.288;10.966;2023-02-28T20:19:40;-0.20;95.20
29501;DHT22;16450;50.288;10.966;2023-02-28T20:22:42;-0.20;95.20
29501;DHT22;16450;50.288;10.966;2023-02-28T20:25:44;-0.20;95.20
29501;DHT22;16450;50.288;10.966;2023-02-28T20:28:46;-0.30;95.30
29501;DHT22;16450;50.288;10.966;2023-02-28T20:31:48;-0.30;95.20
29501;DHT22;16450;50.288;10.966;2023-02-28T20:34:51;-0.30;95.20
29501;DHT22;16450;50.288;10.966;2023-02-28T20:37:53;-0.30;95.30
29501;DHT22;16450;50.288;10.966;2023-02-28T20:40:57;-0.30;95.30
29501;DHT22;16450;50.288;10.966;2023-02-28T20:43:59;-0.30;95.40
29501;DHT22;16450;50.288;10.966;2023-02-28T20:47:04;-0.30;95.50
29501;DHT22;16450;50.288;10.966;2023-02-28T20:50:07;-0.30;95.60
29501;DHT22;16450;50.288;10.966;2023-02-28T20:53:09;-0.40;95.60
29501;DHT22;16450;50.288;10.966;2023-02-28T20:56:14;-0.40;95.60
29501;DHT22;16450;50.288;10.966;2023-02-28T20:59:16;-0.40;95.50
29501;DHT22;16450;50.288;10.966;2023-02-28T21:02:18;-0.40;95.60
29501;DHT22;16450;50.288;10.966;2023-02-28T21:05:22;-0.40;95.60